createdAt,value
2023-04-30T00:00:00.023Z,586.9231
2023-04-30T00:01:01.237Z,557.0000
2023-04-30T00:02:02.128Z,592.7692
2023-04-30T00:03:03.237Z,618.5385
2023-04-30T00:04:04.322Z,632.5385
2023-04-30T00:05:05.206Z,598.2308
2023-04-30T00:06:06.253Z,583.6154
2023-04-30T00:07:07.234Z,571.5385
2023-04-30T00:08:08.367Z,577.8461
2023-04-30T00:09:09.416Z,589.0769
2023-04-30T00:10:10.348Z,567.0769
2023-04-30T00:11:11.385Z,560.5385
2023-04-30T00:12:12.595Z,577.0769
2023-04-30T00:13:13.499Z,571.4615
2023-04-30T00:14:14.524Z,578.1539
2023-04-30T00:15:15.620Z,589.0769
2023-04-30T00:16:16.616Z,627.6154
2023-04-30T00:17:17.551Z,634.9231
2023-04-30T00:18:18.790Z,596.0769
2023-04-30T00:19:19.692Z,597.5385
2023-04-30T00:20:20.789Z,584.1539
2023-04-30T00:21:21.696Z,609.0769
2023-04-30T00:22:22.754Z,618.3846
2023-04-30T00:23:24.017Z,620.4615
2023-04-30T00:24:24.872Z,623.0000
2023-04-30T00:25:25.825Z,631.8461
2023-04-30T00:26:26.879Z,630.6923
2023-04-30T00:27:27.910Z,619.3077
2023-04-30T00:28:29.002Z,633.9231
2023-04-30T00:29:30.057Z,632.6923
2023-04-30T00:30:30.996Z,627.3846
2023-04-30T00:31:32.122Z,607.9231
2023-04-30T00:32:33.143Z,596.9231
2023-04-30T00:33:34.206Z,591.6923
2023-04-30T00:34:35.389Z,583.6154
2023-04-30T00:35:36.177Z,599.3846
2023-04-30T00:36:37.234Z,601.2308
2023-04-30T00:37:38.259Z,589.5385
2023-04-30T00:38:39.351Z,600.9231
2023-04-30T00:39:40.365Z,606.2308
2023-04-30T00:40:41.400Z,583.6923
2023-04-30T00:41:42.366Z,581.4615
2023-04-30T00:42:43.429Z,614.2308
2023-04-30T00:43:44.512Z,635.9231
2023-04-30T00:44:45.554Z,635.5385
2023-04-30T00:45:46.721Z,650.3077
2023-04-30T00:46:47.581Z,636.9231
2023-04-30T00:47:48.618Z,586.6154
2023-04-30T00:48:49.758Z,610.1539
2023-04-30T00:49:50.702Z,640.8461
2023-04-30T00:50:51.693Z,638.9231
2023-04-30T00:51:52.709Z,639.6154
2023-04-30T00:52:53.782Z,608.6923
2023-04-30T00:53:54.828Z,582.3077
2023-04-30T00:54:55.900Z,557.0769
2023-04-30T00:55:56.835Z,580.5385
2023-04-30T00:56:57.934Z,581.0000
2023-04-30T00:57:58.948Z,588.1539
2023-04-30T00:59:00.110Z,596.5385
2023-04-30T01:00:01.135Z,616.1539
2023-04-30T01:01:02.254Z,616.3846
2023-04-30T01:02:03.396Z,614.5385
2023-04-30T01:03:04.276Z,588.0769
2023-04-30T01:04:05.246Z,597.1539
2023-04-30T01:05:06.385Z,606.5385
2023-04-30T01:06:07.317Z,599.1539
2023-04-30T01:07:08.312Z,610.3846
2023-04-30T01:08:09.331Z,600.5385
2023-04-30T01:09:10.470Z,600.3077
2023-04-30T01:10:11.464Z,583.7692
2023-04-30T01:11:12.463Z,567.7692
2023-04-30T01:12:13.487Z,569.5385
2023-04-30T01:13:14.663Z,592.8461
2023-04-30T01:14:15.612Z,593.5385
2023-04-30T01:15:16.652Z,592.1539
2023-04-30T01:16:17.746Z,603.5385
2023-04-30T01:17:18.663Z,580.6923
2023-04-30T01:18:19.904Z,561.5385
2023-04-30T01:19:20.771Z,604.0769
2023-04-30T01:20:21.823Z,634.6923
2023-04-30T01:21:22.817Z,652.0000
2023-04-30T01:22:23.832Z,672.7692
2023-04-30T01:23:24.834Z,666.0000
2023-04-30T01:24:26.091Z,636.5385
2023-04-30T01:25:26.978Z,640.7692
2023-04-30T01:26:27.974Z,661.2308
2023-04-30T01:27:29.052Z,617.8461
2023-04-30T01:28:29.937Z,601.0769
2023-04-30T01:29:30.999Z,599.5385
2023-04-30T01:30:32.026Z,627.6923
2023-04-30T01:31:33.055Z,623.7692
2023-04-30T01:32:34.114Z,577.9231
2023-04-30T01:33:35.100Z,573.3846
2023-04-30T01:34:36.210Z,594.7692
2023-04-30T01:35:37.207Z,591.8461
2023-04-30T01:36:38.211Z,579.6923
2023-04-30T01:37:39.257Z,604.0000
2023-04-30T01:38:40.297Z,619.3077
2023-04-30T01:39:41.329Z,612.1539
2023-04-30T01:40:42.442Z,580.4615
2023-04-30T01:41:43.398Z,565.6923
2023-04-30T01:42:44.445Z,566.7692
2023-04-30T01:43:45.473Z,578.3846
2023-04-30T01:44:46.559Z,559.9231
2023-04-30T01:45:47.613Z,554.1539
2023-04-30T01:46:48.596Z,553.8461
2023-04-30T01:47:49.640Z,562.6154
2023-04-30T01:48:50.669Z,569.8461
2023-04-30T01:49:51.923Z,567.5385
2023-04-30T01:50:52.784Z,557.4615
2023-04-30T01:51:53.754Z,547.5385
2023-04-30T01:52:54.800Z,552.8461
2023-04-30T01:53:55.826Z,556.4615
2023-04-30T01:54:56.913Z,572.6154
2023-04-30T01:55:57.919Z,566.1539
2023-04-30T01:56:58.942Z,556.7692
2023-04-30T01:58:00.001Z,570.0000
2023-04-30T01:59:01.015Z,560.9231
2023-04-30T02:00:02.099Z,556.8461
2023-04-30T02:01:03.114Z,555.3077
2023-04-30T02:02:04.161Z,539.3846
2023-04-30T02:03:05.224Z,563.6154
2023-04-30T02:04:06.294Z,578.9231
2023-04-30T02:05:07.256Z,581.0769
2023-04-30T02:06:08.351Z,585.3846
2023-04-30T02:07:09.323Z,560.3077
2023-04-30T02:08:10.338Z,552.3846
2023-04-30T02:09:11.353Z,539.9231
2023-04-30T02:10:12.409Z,535.8461
2023-04-30T02:11:13.446Z,540.9231
2023-04-30T02:12:14.477Z,539.4615
2023-04-30T02:13:15.462Z,542.7692
2023-04-30T02:14:16.521Z,549.0769
2023-04-30T02:15:17.541Z,547.7692
2023-04-30T02:16:18.738Z,548.5385
2023-04-30T02:17:19.611Z,549.7692
2023-04-30T02:18:20.693Z,545.9231
2023-04-30T02:19:21.659Z,540.8461
2023-04-30T02:20:22.715Z,554.0000
2023-04-30T02:21:23.780Z,555.5385
2023-04-30T02:22:24.775Z,549.1539
2023-04-30T02:23:25.804Z,545.4615
2023-04-30T02:24:26.815Z,567.1539
2023-04-30T02:25:27.840Z,573.3846
2023-04-30T02:26:29.290Z,554.3077
2023-04-30T02:27:29.925Z,558.8461
2023-04-30T02:28:30.963Z,548.6154
2023-04-30T02:29:31.995Z,524.3077
2023-04-30T02:30:33.051Z,543.6154
2023-04-30T02:31:34.097Z,542.4615
2023-04-30T02:32:35.165Z,552.9231
2023-04-30T02:33:36.152Z,570.9231
2023-04-30T02:34:37.148Z,591.7692
2023-04-30T02:35:38.186Z,577.0000
2023-04-30T02:36:39.209Z,569.8461
2023-04-30T02:37:40.252Z,563.1539
2023-04-30T02:38:41.315Z,579.2308
2023-04-30T02:39:42.296Z,596.7692
2023-04-30T02:40:43.329Z,588.6923
2023-04-30T02:41:44.346Z,581.1539
2023-04-30T02:42:45.404Z,547.6154
2023-04-30T02:43:46.490Z,551.1539
2023-04-30T02:44:47.469Z,559.6154
2023-04-30T02:45:48.565Z,553.6154
2023-04-30T02:46:49.559Z,584.5385
2023-04-30T02:47:50.610Z,599.6923
2023-04-30T02:48:51.646Z,608.3077
2023-04-30T02:49:53.010Z,579.5385
2023-04-30T02:50:53.663Z,571.9231
2023-04-30T02:51:54.675Z,593.5385
2023-04-30T02:52:55.905Z,595.7692
2023-04-30T02:53:56.764Z,558.4615
2023-04-30T02:54:57.803Z,544.6923
2023-04-30T02:55:58.825Z,563.3077
2023-04-30T02:56:59.873Z,578.9231
2023-04-30T02:58:00.925Z,567.3846
2023-04-30T02:59:01.955Z,585.6923
2023-04-30T03:00:03.044Z,558.5385
2023-04-30T03:01:04.051Z,564.3846
2023-04-30T03:02:05.098Z,587.4615
2023-04-30T03:03:06.282Z,611.6154
2023-04-30T03:04:07.185Z,614.1539
2023-04-30T03:05:08.195Z,583.2308
2023-04-30T03:06:09.250Z,569.8461
2023-04-30T03:07:10.226Z,577.5385
2023-04-30T03:08:11.314Z,575.3846
2023-04-30T03:09:12.316Z,555.7692
2023-04-30T03:10:13.343Z,563.4615
2023-04-30T03:11:14.375Z,553.7692
2023-04-30T03:12:15.443Z,585.0000
2023-04-30T03:13:16.465Z,592.3846
2023-04-30T03:14:17.545Z,584.0769
2023-04-30T03:15:18.505Z,572.8461
2023-04-30T03:16:19.620Z,604.2308
2023-04-30T03:17:20.575Z,563.2308
2023-04-30T03:18:21.852Z,548.7692
2023-04-30T03:19:22.675Z,560.2308
2023-04-30T03:20:23.792Z,561.9231
2023-04-30T03:21:24.719Z,554.6923
2023-04-30T03:22:25.776Z,567.2308
2023-04-30T03:23:26.838Z,613.0769
2023-04-30T03:24:27.907Z,592.6923
2023-04-30T03:25:28.908Z,586.8461
2023-04-30T03:26:29.923Z,592.1539
2023-04-30T03:27:30.959Z,588.5385
2023-04-30T03:28:32.092Z,573.6154
2023-04-30T03:29:32.990Z,576.2308
2023-04-30T03:30:34.057Z,594.3846
2023-04-30T03:31:35.126Z,625.7692
2023-04-30T03:32:36.169Z,583.3846
2023-04-30T03:33:37.212Z,568.0000
2023-04-30T03:34:38.219Z,552.6923
2023-04-30T03:35:39.215Z,527.6154
2023-04-30T03:36:40.287Z,532.8461
2023-04-30T03:37:41.268Z,559.6154
2023-04-30T03:38:42.336Z,589.8461
2023-04-30T03:39:43.391Z,559.3077
2023-04-30T03:40:44.424Z,575.3846
2023-04-30T03:41:45.482Z,576.6923
2023-04-30T03:42:47.431Z,566.4615
2023-04-30T03:43:47.518Z,573.7692
2023-04-30T03:44:48.560Z,555.6923
2023-04-30T03:45:49.613Z,551.1539
2023-04-30T03:46:50.615Z,566.0769
2023-04-30T03:47:51.638Z,583.6154
2023-04-30T03:48:52.686Z,639.0000
2023-04-30T03:49:54.284Z,610.5385
2023-04-30T03:50:54.777Z,576.3077
2023-04-30T03:51:55.923Z,589.9231
2023-04-30T03:52:56.831Z,589.3846
2023-04-30T03:53:57.828Z,578.4615
2023-04-30T03:54:58.908Z,599.5385
2023-04-30T03:55:59.945Z,591.7692
2023-04-30T03:57:01.234Z,588.6923
2023-04-30T03:58:01.993Z,592.0769
2023-04-30T03:59:03.036Z,608.3846
2023-04-30T04:00:04.084Z,632.6923
2023-04-30T04:01:05.142Z,647.4615
2023-04-30T04:02:06.146Z,614.9231
2023-04-30T04:03:07.200Z,640.7692
2023-04-30T04:04:08.254Z,622.5385
2023-04-30T04:05:09.291Z,622.3846
2023-04-30T04:06:10.332Z,598.1539
2023-04-30T04:07:11.397Z,598.2308
2023-04-30T04:08:12.348Z,590.9231
2023-04-30T04:09:13.416Z,574.9231
2023-04-30T04:10:14.409Z,565.9231
2023-04-30T04:11:15.491Z,579.7692
2023-04-30T04:12:16.550Z,557.4615
2023-04-30T04:13:17.541Z,541.3846
2023-04-30T04:14:18.570Z,553.0000
2023-04-30T04:15:19.626Z,559.6923
2023-04-30T04:16:20.653Z,554.1539
2023-04-30T04:17:21.760Z,544.6154
2023-04-30T04:18:22.665Z,545.5385
2023-04-30T04:19:23.721Z,546.6923
2023-04-30T04:20:24.770Z,562.1539
2023-04-30T04:21:25.873Z,544.8461
2023-04-30T04:22:26.855Z,536.0769
2023-04-30T04:23:27.870Z,528.2308
2023-04-30T04:24:28.890Z,527.8461
2023-04-30T04:25:29.951Z,565.0000
2023-04-30T04:26:31.003Z,565.8461
2023-04-30T04:27:32.049Z,546.1539
2023-04-30T04:28:33.036Z,540.3846
2023-04-30T04:29:34.119Z,570.3077
2023-04-30T04:30:35.137Z,544.3077
2023-04-30T04:31:36.236Z,536.0000
2023-04-30T04:32:37.260Z,548.2308
2023-04-30T04:33:38.280Z,536.9231
2023-04-30T04:34:39.245Z,573.6923
2023-04-30T04:35:40.305Z,574.8461
2023-04-30T04:36:41.376Z,554.2308
2023-04-30T04:37:42.395Z,567.0769
2023-04-30T04:38:43.388Z,600.5385
2023-04-30T04:39:44.475Z,591.9231
2023-04-30T04:40:45.445Z,543.0000
2023-04-30T04:41:46.530Z,522.1539
2023-04-30T04:42:47.570Z,512.3846
2023-04-30T04:43:48.570Z,541.8461
2023-04-30T04:44:49.587Z,554.8461
2023-04-30T04:45:50.691Z,557.0000
2023-04-30T04:46:51.735Z,566.3077
2023-04-30T04:47:52.800Z,555.0000
2023-04-30T04:48:53.758Z,587.7692
2023-04-30T04:49:54.959Z,573.8461
2023-04-30T04:50:55.794Z,551.0769
2023-04-30T04:51:56.892Z,530.4615
2023-04-30T04:52:57.881Z,536.6923
2023-04-30T04:53:58.911Z,560.6923
2023-04-30T04:54:59.947Z,561.0769
2023-04-30T04:56:00.996Z,575.3846
2023-04-30T04:57:02.035Z,577.6154
2023-04-30T04:58:03.107Z,576.3846
2023-04-30T04:59:04.160Z,570.5385
2023-04-30T05:00:05.192Z,555.3077
2023-04-30T05:01:06.209Z,566.6923
2023-04-30T05:02:07.320Z,558.6154
2023-04-30T05:03:08.387Z,556.3077
2023-04-30T05:04:09.468Z,585.3077
2023-04-30T05:05:10.357Z,579.2308
2023-04-30T05:06:11.429Z,543.0000
2023-04-30T05:07:12.708Z,576.8461
2023-04-30T05:08:13.504Z,585.4615
2023-04-30T05:09:14.484Z,587.8461
2023-04-30T05:10:15.548Z,589.7692
2023-04-30T05:11:16.569Z,624.7692
2023-04-30T05:12:17.650Z,617.6154
2023-04-30T05:13:18.668Z,572.4615
2023-04-30T05:14:19.654Z,563.8461
2023-04-30T05:15:20.716Z,550.6154
2023-04-30T05:16:21.733Z,584.9231
2023-04-30T05:17:22.835Z,564.0000
2023-04-30T05:18:23.796Z,535.0769
2023-04-30T05:19:24.850Z,560.0000
2023-04-30T05:20:25.889Z,558.6154
2023-04-30T05:21:26.960Z,593.0769
2023-04-30T05:22:27.910Z,585.2308
2023-04-30T05:23:28.950Z,598.3846
2023-04-30T05:24:30.000Z,605.0000
2023-04-30T05:25:31.041Z,614.6923
2023-04-30T05:26:32.015Z,585.6923
2023-04-30T05:27:33.066Z,552.3077
2023-04-30T05:28:34.095Z,534.9231
2023-04-30T05:29:35.177Z,534.2308
2023-04-30T05:30:36.198Z,584.0000
2023-04-30T05:31:37.319Z,600.6923
2023-04-30T05:32:38.267Z,586.0769
2023-04-30T05:33:39.269Z,601.6923
2023-04-30T05:34:40.271Z,599.0000
2023-04-30T05:35:41.355Z,603.3077
2023-04-30T05:36:43.772Z,608.1539
2023-04-30T05:37:43.397Z,588.2308
2023-04-30T05:38:44.558Z,588.2308
2023-04-30T05:39:45.491Z,601.0769
2023-04-30T05:40:46.533Z,599.4615
2023-04-30T05:41:47.643Z,588.5385
2023-04-30T05:42:48.566Z,542.9231
2023-04-30T05:43:49.603Z,568.0769
2023-04-30T05:44:50.621Z,568.3077
2023-04-30T05:45:51.759Z,546.6154
2023-04-30T05:46:52.725Z,572.7692
2023-04-30T05:47:53.786Z,582.3077
2023-04-30T05:48:54.750Z,576.8461
2023-04-30T05:49:56.073Z,594.3077
2023-04-30T05:50:56.854Z,560.6154
2023-04-30T05:51:57.982Z,562.3846
2023-04-30T05:52:58.913Z,579.5385
2023-04-30T05:53:59.933Z,591.6923
2023-04-30T05:55:00.951Z,588.2308
2023-04-30T05:56:02.053Z,601.4615
2023-04-30T05:57:03.096Z,615.5385
2023-04-30T05:58:04.093Z,620.3846
2023-04-30T05:59:05.127Z,614.8461
2023-04-30T06:00:06.200Z,607.2308
2023-04-30T06:01:07.241Z,582.0769
2023-04-30T06:02:08.308Z,602.0769
2023-04-30T06:03:09.327Z,597.8461
2023-04-30T06:04:10.340Z,600.3846
2023-04-30T06:05:11.748Z,577.7692
2023-04-30T06:06:12.491Z,566.1539
2023-04-30T06:07:13.430Z,562.9231
2023-04-30T06:08:14.436Z,563.3077
2023-04-30T06:09:15.474Z,600.3846
2023-04-30T06:10:16.526Z,618.7692
2023-04-30T06:11:17.555Z,620.0769
2023-04-30T06:12:18.613Z,609.7692
2023-04-30T06:13:19.639Z,590.0000
2023-04-30T06:14:20.655Z,623.9231
2023-04-30T06:15:21.686Z,649.1539
2023-04-30T06:16:22.817Z,617.5385
2023-04-30T06:17:23.792Z,574.0769
2023-04-30T06:18:24.825Z,571.9231
2023-04-30T06:19:25.867Z,578.8461
2023-04-30T06:20:26.897Z,548.1539
2023-04-30T06:21:27.939Z,533.2308
2023-04-30T06:22:29.036Z,546.0769
2023-04-30T06:23:29.962Z,559.1539
2023-04-30T06:24:31.014Z,562.5385
2023-04-30T06:25:32.041Z,606.7692
2023-04-30T06:26:33.115Z,634.3846
2023-04-30T06:27:34.152Z,640.9231
2023-04-30T06:28:35.211Z,609.3846
2023-04-30T06:29:36.186Z,575.9231
2023-04-30T06:30:37.234Z,565.5385
2023-04-30T06:31:38.299Z,562.5385
2023-04-30T06:32:39.329Z,590.4615
2023-04-30T06:33:40.329Z,566.4615
2023-04-30T06:34:41.355Z,590.8461
2023-04-30T06:35:42.372Z,595.5385
2023-04-30T06:36:43.411Z,601.8461
2023-04-30T06:37:44.470Z,610.2308
2023-04-30T06:38:45.570Z,589.4615
2023-04-30T06:39:46.481Z,569.6154
2023-04-30T06:40:47.551Z,603.0000
2023-04-30T06:41:48.561Z,616.2308
2023-04-30T06:42:49.650Z,622.0000
2023-04-30T06:43:50.689Z,609.2308
2023-04-30T06:44:51.687Z,623.9231
2023-04-30T06:45:52.743Z,607.3846
2023-04-30T06:46:53.753Z,606.6154
2023-04-30T06:47:54.815Z,601.9231
2023-04-30T06:48:55.830Z,595.6154
2023-04-30T06:49:57.123Z,586.5385
2023-04-30T06:50:57.904Z,587.0769
2023-04-30T06:51:58.910Z,607.8461
2023-04-30T06:53:00.010Z,607.5385
2023-04-30T06:54:01.057Z,626.5385
2023-04-30T06:55:02.015Z,610.4615
2023-04-30T06:56:03.075Z,599.9231
2023-04-30T06:57:04.111Z,626.0769
2023-04-30T06:58:05.122Z,634.5385
2023-04-30T06:59:06.179Z,663.0769
2023-04-30T07:00:07.289Z,681.7692
2023-04-30T07:01:08.359Z,671.1539
2023-04-30T07:02:09.363Z,677.3846
2023-04-30T07:03:10.577Z,672.7692
2023-04-30T07:04:11.471Z,660.2308
2023-04-30T07:05:12.435Z,664.6154
2023-04-30T07:06:13.479Z,656.1539
2023-04-30T07:07:14.506Z,643.0769
2023-04-30T07:08:15.575Z,654.0000
2023-04-30T07:09:16.614Z,663.6923
2023-04-30T07:10:17.629Z,638.0000
2023-04-30T07:11:18.621Z,643.9231
2023-04-30T07:12:19.669Z,664.3077
2023-04-30T07:13:20.736Z,661.5385
2023-04-30T07:14:21.812Z,652.3077
2023-04-30T07:15:22.749Z,658.1539
2023-04-30T07:16:23.820Z,651.6154
2023-04-30T07:17:26.796Z,669.0000
2023-04-30T07:18:25.908Z,685.4615
2023-04-30T07:19:26.946Z,624.2308
2023-04-30T07:20:27.937Z,598.6154
2023-04-30T07:21:28.965Z,595.5385
2023-04-30T07:22:29.994Z,601.0000
2023-04-30T07:23:31.120Z,625.1539
2023-04-30T07:24:32.144Z,627.2308
2023-04-30T07:25:33.167Z,584.8461
2023-04-30T07:26:34.216Z,592.0000
2023-04-30T07:27:35.223Z,583.7692
2023-04-30T07:28:36.313Z,590.0000
2023-04-30T07:29:37.285Z,617.4615
2023-04-30T07:30:38.272Z,602.0000
2023-04-30T07:31:39.388Z,617.7692
2023-04-30T07:32:40.331Z,638.8461
2023-04-30T07:33:41.425Z,649.6154
2023-04-30T07:34:42.449Z,645.7692
2023-04-30T07:35:43.424Z,640.0769
2023-04-30T07:36:44.476Z,618.0000
2023-04-30T07:37:45.493Z,584.1539
2023-04-30T07:38:46.643Z,609.3846
2023-04-30T07:39:47.650Z,634.3846
2023-04-30T07:40:48.614Z,636.6154
2023-04-30T07:41:49.612Z,615.1539
2023-04-30T07:42:50.671Z,593.3077
2023-04-30T07:43:51.829Z,615.3846
2023-04-30T07:44:52.814Z,633.0769
2023-04-30T07:45:53.812Z,624.2308
2023-04-30T07:46:54.811Z,633.3846
2023-04-30T07:47:55.935Z,621.0769
2023-04-30T07:48:56.975Z,602.8461
2023-04-30T07:49:57.989Z,592.8461
2023-04-30T07:50:59.026Z,595.4615
2023-04-30T07:51:59.976Z,630.6923
2023-04-30T07:53:01.014Z,622.4615
2023-04-30T07:54:02.164Z,562.7692
2023-04-30T07:55:03.151Z,576.7692
2023-04-30T07:56:04.171Z,603.8461
2023-04-30T07:57:05.165Z,606.9231
2023-04-30T07:58:06.170Z,569.6923
2023-04-30T07:59:07.275Z,541.8461
2023-04-30T08:00:08.316Z,529.3846
2023-04-30T08:01:09.298Z,540.0769
2023-04-30T08:02:10.390Z,567.1539
2023-04-30T08:03:11.463Z,621.8461
2023-04-30T08:04:12.626Z,623.1539
2023-04-30T08:05:13.505Z,618.8461
2023-04-30T08:06:14.489Z,621.3846
2023-04-30T08:07:15.539Z,622.3077
2023-04-30T08:08:16.547Z,636.0000
2023-04-30T08:09:17.655Z,630.8461
2023-04-30T08:10:18.690Z,629.9231
2023-04-30T08:11:19.675Z,638.0769
2023-04-30T08:12:20.662Z,640.0769
2023-04-30T08:13:21.714Z,638.6154
2023-04-30T08:14:22.816Z,606.0769
2023-04-30T08:15:23.896Z,565.1539
2023-04-30T08:16:24.863Z,558.6923
2023-04-30T08:17:25.903Z,577.7692
2023-04-30T08:18:26.901Z,585.3077
2023-04-30T08:19:27.996Z,568.3846
2023-04-30T08:20:29.029Z,591.8461
2023-04-30T08:21:30.056Z,593.0000
2023-04-30T08:22:31.040Z,580.9231
2023-04-30T08:23:32.061Z,577.3077
2023-04-30T08:24:33.132Z,580.5385
2023-04-30T08:25:34.218Z,592.4615
2023-04-30T08:26:35.255Z,621.0000
2023-04-30T08:27:36.199Z,624.5385
2023-04-30T08:28:37.276Z,622.0000
2023-04-30T08:29:38.355Z,613.8461
2023-04-30T08:30:39.357Z,598.2308
2023-04-30T08:31:40.449Z,628.8461
2023-04-30T08:32:41.348Z,642.5385
2023-04-30T08:33:42.354Z,653.3846
2023-04-30T08:34:43.453Z,633.3846
2023-04-30T08:35:44.528Z,587.2308
2023-04-30T08:36:45.453Z,582.0000
2023-04-30T08:37:46.472Z,613.0000
2023-04-30T08:38:47.504Z,655.3077
2023-04-30T08:39:48.629Z,667.2308
2023-04-30T08:40:52.034Z,659.0769
2023-04-30T08:41:50.593Z,645.2308
2023-04-30T08:42:51.626Z,637.2308
2023-04-30T08:43:52.683Z,619.6154
2023-04-30T08:44:53.784Z,646.3077
2023-04-30T08:45:54.892Z,640.9231
2023-04-30T08:46:55.775Z,613.6923
2023-04-30T08:47:56.878Z,634.3077
2023-04-30T08:48:57.873Z,624.2308
2023-04-30T08:49:58.894Z,628.0000
2023-04-30T08:51:00.009Z,606.1539
2023-04-30T08:52:01.014Z,627.5385
2023-04-30T08:53:01.958Z,656.3846
2023-04-30T08:54:02.999Z,654.5385
2023-04-30T08:55:04.064Z,613.4615
2023-04-30T08:56:05.110Z,630.6923
2023-04-30T08:57:06.112Z,704.3077
2023-04-30T08:58:07.104Z,694.3846
2023-04-30T08:59:08.246Z,693.6154
2023-04-30T09:00:09.341Z,679.1539
2023-04-30T09:01:10.412Z,655.9231
2023-04-30T09:02:11.330Z,678.7692
2023-04-30T09:03:12.462Z,650.6154
2023-04-30T09:04:13.585Z,649.8461
2023-04-30T09:05:14.478Z,649.6154
2023-04-30T09:06:15.596Z,662.6154
2023-04-30T09:07:16.486Z,642.9231
2023-04-30T09:08:17.516Z,637.0000
2023-04-30T09:09:18.635Z,662.6154
2023-04-30T09:10:19.627Z,656.8461
2023-04-30T09:11:20.708Z,621.2308
2023-04-30T09:12:21.627Z,633.6923
2023-04-30T09:13:22.806Z,649.7692
2023-04-30T09:14:23.703Z,652.5385
2023-04-30T09:15:24.825Z,671.8461
2023-04-30T09:16:25.909Z,668.3846
2023-04-30T09:17:26.845Z,674.7692
2023-04-30T09:18:27.816Z,673.9231
2023-04-30T09:19:28.875Z,681.5385
2023-04-30T09:20:30.031Z,682.6154
2023-04-30T09:21:31.070Z,672.9231
2023-04-30T09:22:32.015Z,649.8461
2023-04-30T09:23:33.161Z,666.2308
2023-04-30T09:24:34.105Z,670.7692
2023-04-30T09:25:35.151Z,669.6923
2023-04-30T09:26:36.230Z,688.6154
2023-04-30T09:27:37.177Z,653.0000
2023-04-30T09:28:38.158Z,616.6154
2023-04-30T09:29:39.236Z,642.6923
2023-04-30T09:30:40.313Z,640.9231
2023-04-30T09:31:41.413Z,649.3077
2023-04-30T09:32:42.411Z,655.0769
2023-04-30T09:33:43.376Z,663.0769
2023-04-30T09:34:44.401Z,660.6923
2023-04-30T09:35:45.505Z,663.6923
2023-04-30T09:36:46.510Z,622.6154
2023-04-30T09:37:47.583Z,637.1539
2023-04-30T09:38:48.490Z,636.2308
2023-04-30T09:39:49.670Z,630.3077
2023-04-30T09:40:50.631Z,631.5385
2023-04-30T09:41:51.758Z,612.2308
2023-04-30T09:42:52.674Z,597.7692
2023-04-30T09:43:53.734Z,596.3077
2023-04-30T09:44:54.758Z,655.0000
2023-04-30T09:45:55.825Z,652.6923
2023-04-30T09:46:56.926Z,627.5385
2023-04-30T09:48:09.048Z,647.0000
2023-04-30T09:48:58.851Z,684.2308
2023-04-30T09:49:59.889Z,685.3846
2023-04-30T09:51:00.997Z,680.3846
2023-04-30T09:52:01.999Z,669.6923
2023-04-30T09:53:02.976Z,668.3846
2023-04-30T09:54:04.017Z,670.1539
2023-04-30T09:55:05.019Z,677.6923
2023-04-30T09:56:06.158Z,690.6154
2023-04-30T09:57:07.133Z,696.1539
2023-04-30T09:58:08.121Z,704.6923
2023-04-30T09:59:09.241Z,697.5385
2023-04-30T10:00:10.196Z,678.3077
2023-04-30T10:01:11.377Z,691.0000
2023-04-30T10:02:12.338Z,678.7692
2023-04-30T10:03:13.426Z,682.2308
2023-04-30T10:04:14.374Z,671.7692
2023-04-30T10:05:15.417Z,625.4615
2023-04-30T10:06:16.460Z,626.8461
2023-04-30T10:07:19.452Z,632.0000
2023-04-30T10:08:18.517Z,634.4615
2023-04-30T10:09:19.481Z,635.8461
2023-04-30T10:10:20.511Z,582.0769
2023-04-30T10:11:21.599Z,598.5385
2023-04-30T10:12:22.684Z,607.4615
2023-04-30T10:13:23.654Z,614.8461
2023-04-30T10:14:24.630Z,611.0000
2023-04-30T10:15:25.677Z,599.6923
2023-04-30T10:16:26.785Z,617.2308
2023-04-30T10:17:27.870Z,621.1539
2023-04-30T10:18:28.914Z,644.3077
2023-04-30T10:19:29.824Z,641.2308
2023-04-30T10:20:30.869Z,614.8461
2023-04-30T10:21:31.918Z,645.5385
2023-04-30T10:22:32.994Z,635.6923
2023-04-30T10:23:33.935Z,637.3846
2023-04-30T10:24:35.006Z,618.9231
2023-04-30T10:25:36.596Z,630.4615
2023-04-30T10:26:37.157Z,615.6154
2023-04-30T10:27:38.135Z,577.3077
2023-04-30T10:28:39.130Z,589.6923
2023-04-30T10:29:40.187Z,598.6923
2023-04-30T10:30:41.231Z,617.1539
2023-04-30T10:31:42.264Z,619.7692
2023-04-30T10:32:43.373Z,577.0000
2023-04-30T10:33:44.248Z,581.5385
2023-04-30T10:34:45.313Z,579.0000
2023-04-30T10:35:46.308Z,602.8461
2023-04-30T10:36:47.438Z,599.0769
2023-04-30T10:37:48.314Z,586.0769
2023-04-30T10:38:49.416Z,621.9231
2023-04-30T10:39:50.375Z,618.9231
2023-04-30T10:40:51.440Z,592.2308
2023-04-30T10:41:52.464Z,576.8461
2023-04-30T10:42:53.513Z,611.9231
2023-04-30T10:43:54.506Z,631.0000
2023-04-30T10:44:55.572Z,613.4615
2023-04-30T10:45:56.602Z,626.4615
2023-04-30T10:46:57.644Z,613.7692
2023-04-30T10:47:58.752Z,625.6923
2023-04-30T10:48:59.730Z,614.4615
2023-04-30T10:50:00.731Z,620.3077
2023-04-30T10:51:01.777Z,666.3846
2023-04-30T10:52:02.762Z,662.4615
2023-04-30T10:53:03.872Z,665.4615
2023-04-30T10:54:04.887Z,643.6154
2023-04-30T10:55:05.917Z,608.4615
2023-04-30T10:56:07.080Z,613.4615
2023-04-30T10:57:07.980Z,620.3846
2023-04-30T10:58:09.005Z,616.0000
2023-04-30T10:59:10.092Z,630.8461
2023-04-30T11:00:11.114Z,638.8461
2023-04-30T11:01:12.176Z,654.0000
2023-04-30T11:02:13.138Z,619.2308
2023-04-30T11:03:14.195Z,627.3846
2023-04-30T11:04:15.259Z,625.0769
2023-04-30T11:05:16.351Z,592.3077
2023-04-30T11:06:17.283Z,609.2308
2023-04-30T11:07:18.310Z,618.1539
2023-04-30T11:08:19.351Z,588.6923
2023-04-30T11:09:20.435Z,590.4615
2023-04-30T11:10:21.415Z,578.7692
2023-04-30T11:11:22.445Z,590.6923
2023-04-30T11:12:23.471Z,600.1539
2023-04-30T11:13:24.539Z,615.5385
2023-04-30T11:14:25.572Z,598.8461
2023-04-30T11:15:26.650Z,603.0000
2023-04-30T11:16:27.680Z,593.0769
2023-04-30T11:17:28.678Z,584.6154
2023-04-30T11:18:29.701Z,596.0769
2023-04-30T11:19:30.797Z,595.8461
2023-04-30T11:20:31.882Z,627.3846
2023-04-30T11:21:32.831Z,618.3077
2023-04-30T11:22:33.822Z,631.1539
2023-04-30T11:23:40.310Z,636.4615
2023-04-30T11:24:35.949Z,613.6923
2023-04-30T11:25:36.967Z,566.5385
2023-04-30T11:26:37.997Z,579.2308
2023-04-30T11:27:39.013Z,587.8461
2023-04-30T11:28:40.113Z,598.6154
2023-04-30T11:29:41.109Z,606.3846
2023-04-30T11:30:42.139Z,601.6923
2023-04-30T11:31:43.186Z,594.5385
2023-04-30T11:32:44.247Z,592.3846
2023-04-30T11:33:45.212Z,607.7692
2023-04-30T11:34:46.310Z,603.0000
2023-04-30T11:35:47.372Z,575.3077
2023-04-30T11:36:48.370Z,565.3077
2023-04-30T11:37:49.382Z,588.5385
2023-04-30T11:38:50.399Z,617.3077
2023-04-30T11:39:51.474Z,618.3077
2023-04-30T11:40:52.502Z,611.4615
2023-04-30T11:41:53.535Z,632.1539
2023-04-30T11:42:54.521Z,614.4615
2023-04-30T11:43:55.555Z,592.0769
2023-04-30T11:44:56.622Z,609.5385
2023-04-30T11:45:57.675Z,645.9231
2023-04-30T11:46:58.833Z,673.7692
2023-04-30T11:47:59.716Z,651.6923
2023-04-30T11:49:00.757Z,660.9231
2023-04-30T11:50:01.752Z,649.1539
2023-04-30T11:51:02.844Z,630.5385
2023-04-30T11:52:03.857Z,668.7692
2023-04-30T11:53:04.893Z,685.1539
2023-04-30T11:54:05.867Z,681.9231
2023-04-30T11:55:06.933Z,697.7692
2023-04-30T11:56:08.023Z,673.6923